Eatons Neck, New York
Current Conditions -  °F | °C
As of 4:53 PM on Sunday 23 Nov 2014 (Local Time) from KFRG Reporting Station
Clear Clear  
Wind Chill: 50°   Ceiling: Unl
Heat Index: 50°   Visibility: 10mi
Dew Point: 35°   Wind: 3mph
Humidity: 57%   Direction: 170°S
Pressure: 30.15"   Gusts: NA
Location:  40.9096°N, 73.3231°W
Report Text: KFRG 232153Z 17003KT 10SM CLR 10/02 A3015 RMK AO2 SLP208 T01000017
Loading
Personal Weather Stations






























Interactive Weather Map New forecast layout! Learn more

10-Day Weather Forecast

Advertisements
Track Severe Weather on mobile